地図

経路データ

SID SEASON NUMBER BASIN SUBBASIN NAME ISO_TIME NATURE LAT LON WMO_WIND WMO_PRES WMO_AGENCY TRACK_TYPE DIST2LAND LANDFALL IFLAG USA_AGENCY USA_ATCF_ID USA_LAT USA_LON USA_RECORD USA_STATUS USA_WIND USA_PRES USA_SSHS USA_R34_NE USA_R34_SE USA_R34_SW USA_R34_NW USA_R50_NE USA_R50_SE USA_R50_SW USA_R50_NW USA_R64_NE USA_R64_SE USA_R64_SW USA_R64_NW USA_POCI USA_ROCI USA_RMW USA_EYE TOKYO_LAT TOKYO_LON TOKYO_GRADE TOKYO_WIND TOKYO_PRES TOKYO_R50_DIR TOKYO_R50_LONG TOKYO_R50_SHORT TOKYO_R30_DIR TOKYO_R30_LONG TOKYO_R30_SHORT TOKYO_LAND CMA_LAT CMA_LON CMA_CAT CMA_WIND CMA_PRES HKO_LAT HKO_LON HKO_CAT HKO_WIND HKO_PRES NEWDELHI_LAT NEWDELHI_LON NEWDELHI_GRADE NEWDELHI_WIND NEWDELHI_PRES NEWDELHI_CI NEWDELHI_DP NEWDELHI_POCI REUNION_LAT REUNION_LON REUNION_TYPE REUNION_WIND REUNION_PRES REUNION_TNUM REUNION_CI REUNION_RMW REUNION_R34_NE REUNION_R34_SE REUNION_R34_SW REUNION_R34_NW REUNION_R50_NE REUNION_R50_SE REUNION_R50_SW REUNION_R50_NW REUNION_R64_NE REUNION_R64_SE REUNION_R64_SW REUNION_R64_NW BOM_LAT BOM_LON BOM_TYPE BOM_WIND BOM_PRES BOM_TNUM BOM_CI BOM_RMW BOM_R34_NE BOM_R34_SE BOM_R34_SW BOM_R34_NW BOM_R50_NE BOM_R50_SE BOM_R50_SW BOM_R50_NW BOM_R64_NE BOM_R64_SE BOM_R64_SW BOM_R64_NW BOM_ROCI BOM_POCI BOM_EYE BOM_POS_METHOD BOM_PRES_METHOD NADI_LAT NADI_LON NADI_CAT NADI_WIND NADI_PRES WELLINGTON_LAT WELLINGTON_LON WELLINGTON_WIND WELLINGTON_PRES DS824_LAT DS824_LON DS824_STAGE DS824_WIND DS824_PRES TD9636_LAT TD9636_LON TD9636_STAGE TD9636_WIND TD9636_PRES TD9635_LAT TD9635_LON TD9635_WIND TD9635_PRES TD9635_ROCI NEUMANN_LAT NEUMANN_LON NEUMANN_CLASS NEUMANN_WIND NEUMANN_PRES MLC_LAT MLC_LON MLC_CLASS MLC_WIND MLC_PRES USA_GUST BOM_GUST BOM_GUST_PER REUNION_GUST REUNION_GUST_PER USA_SEAHGT USA_SEARAD_NE USA_SEARAD_SE USA_SEARAD_SW USA_SEARAD_NW STORM_SPEED STORM_DIR
1998152N11075 1998 30 NI AS NOT_NAMED 1998-06-01 06:00:00 NR 10.6000 74.7000 main 133 133 O_____________ jtwc_io IO031998 10.6000 74.7000 25 -1 3 292
1998152N11075 1998 30 NI AS NOT_NAMED 1998-06-01 09:00:00 NR 10.6625 74.5375 main 149 149 P_____________ IO031998 10.6625 74.5375 27 -1 3 289
1998152N11075 1998 30 NI AS NOT_NAMED 1998-06-01 12:00:00 NR 10.7000 74.4000 main 158 158 O_____________ jtwc_io IO031998 10.7000 74.4000 30 -1 2 279
1998152N11075 1998 30 NI AS NOT_NAMED 1998-06-01 15:00:00 NR 10.7000 74.3000 main 167 167 P_____________ IO031998 10.7000 74.3000 32 -1 2 270
1998152N11075 1998 30 NI AS NOT_NAMED 1998-06-01 18:00:00 NR 10.7000 74.2000 main 177 177 O_____________ jtwc_io IO031998 10.7000 74.2000 35 0 3 281
1998152N11075 1998 30 NI AS NOT_NAMED 1998-06-01 21:00:00 NR 10.7500 74.0500 main 180 180 P_____________ IO031998 10.7500 74.0500 35 0 3 289
1998152N11075 1998 30 NI AS NOT_NAMED 1998-06-02 00:00:00 NR 10.8000 73.9000 main 195 195 O_____________ jtwc_io IO031998 10.8000 73.9000 35 0 3 283
1998152N11075 1998 30 NI AS NOT_NAMED 1998-06-02 03:00:00 NR 10.8075 73.8000 main 203 203 P_____________ IO031998 10.8075 73.8000 35 0 2 270
1998152N11075 1998 30 NI AS NOT_NAMED 1998-06-02 06:00:00 NR 10.8000 73.7000 main 211 211 O_____________ jtwc_io IO031998 10.8000 73.7000 35 0 2 268
1998152N11075 1998 30 NI AS NOT_NAMED 1998-06-02 09:00:00 NR 10.8000 73.5650 main 220 220 P_____________ IO031998 10.8000 73.5650 35 0 3 270
1998152N11075 1998 30 NI AS NOT_NAMED 1998-06-02 12:00:00 NR 10.8000 73.4000 main 237 237 O_____________ jtwc_io IO031998 10.8000 73.4000 35 0 4 269
1998152N11075 1998 30 NI AS NOT_NAMED 1998-06-02 15:00:00 NR 10.7925 73.2000 main 256 256 P_____________ IO031998 10.7925 73.2000 35 0 4 270
1998152N11075 1998 30 NI AS NOT_NAMED 1998-06-02 18:00:00 NR 10.8000 73.0000 main 275 275 O_____________ jtwc_io IO031998 10.8000 73.0000 35 0 3 278
1998152N11075 1998 30 NI AS NOT_NAMED 1998-06-02 21:00:00 NR 10.8425 72.8500 main 284 289 P_____________ IO031998 10.8425 72.8500 35 0 3 289
1998152N11075 1998 30 NI AS NOT_NAMED 1998-06-03 00:00:00 NR 10.9000 72.7000 main 299 299 O_____________ jtwc_io IO031998 10.9000 72.7000 35 0 4 289
1998152N11075 1998 30 NI AS NOT_NAMED 1998-06-03 03:00:00 NR 10.9575 72.5000 main 313 313 P_____________ IO031998 10.9575 72.5000 35 0 4 284
1998152N11075 1998 30 NI AS NOT_NAMED 1998-06-03 06:00:00 NR 11.0000 72.3000 main 333 333 O_____________ jtwc_io IO031998 11.0000 72.3000 35 0 4 277
1998152N11075 1998 30 NI AS NOT_NAMED 1998-06-03 09:00:00 NR 11.0000 72.1350 main 352 352 P_____________ IO031998 11.0000 72.1350 32 -1 3 270
1998152N11075 1998 30 NI AS NOT_NAMED 1998-06-03 12:00:00 NR 11.0000 72.0000 main 362 362 O_____________ jtwc_io IO031998 11.0000 72.0000 30 -1 2 280
1998152N11075 1998 30 NI AS NOT_NAMED 1998-06-03 15:00:00 NR 11.0425 71.8925 main 372 367 P_____________ IO031998 11.0425 71.8925 30 -1 2 297
1998152N11075 1998 30 NI AS NOT_NAMED 1998-06-03 18:00:00 NR 11.1000 71.8000 main 377 377 O_____________ jtwc_io IO031998 11.1000 71.8000 30 -1 2 300
1998152N11075 1998 30 NI AS NOT_NAMED 1998-06-03 21:00:00 NR 11.1500 71.7000 main 386 382 P_____________ IO031998 11.1500 71.7000 30 -1 2 297
1998152N11075 1998 30 NI AS NOT_NAMED 1998-06-04 00:00:00 NR 11.2000 71.6000 main 391 391 O_____________ jtwc_io IO031998 11.2000 71.6000 30 -1 2 297
1998152N11075 1998 30 NI AS NOT_NAMED 1998-06-04 03:00:00 NR 11.2500 71.5000 main 396 401 P_____________ IO031998 11.2500 71.5000 30 -1 6 264
1998152N11075 1998 30 NI AS NOT_NAMED 1998-06-04 06:00:00 NR 11.1400 71.0200 25 1004 newdelhi main 455 455 O___O_________ jtwc_io IO031998 11.3000 71.4000 30 -1 10.5000 69.5000 D 25 1004 1.50000 4 9 265
1998152N11075 1998 30 NI AS NOT_NAMED 1998-06-04 09:00:00 NR 11.1693 70.6031 main 490 490 P___P_________ IO031998 11.3500 71.3000 30 -1 10.8078 69.2092 D 27 1004 5 8 277
1998152N11075 1998 30 NI AS NOT_NAMED 1998-06-04 12:00:00 NR 11.2286 70.2571 30 1004 newdelhi main 521 521 O___O_________ jtwc_io IO031998 11.4000 71.2000 30 -1 11.0000 69.0000 DD 30 1004 2.00000 6 6 276
1998152N11075 1998 30 NI AS NOT_NAMED 1998-06-04 15:00:00 NR 11.2249 70.0193 main 552 552 P___P_________ IO031998 11.4500 71.1000 30 -1 10.9997 68.9386 DD 2 261
1998152N11075 1998 30 NI AS NOT_NAMED 1998-06-04 18:00:00 NR 11.1921 70.0124 main 552 541 O___P_________ jtwc_io IO031998 11.5000 71.0000 30 -1 10.8842 69.0247 DD 1 138
1998152N11075 1998 30 NI AS NOT_NAMED 1998-06-04 21:00:00 NR 11.1594 70.0744 main 541 531 P___P_________ IO031998 11.5500 70.9075 32 -1 10.7688 69.2414 DD 2 93
1998152N11075 1998 30 NI AS NOT_NAMED 1998-06-05 00:00:00 NR 11.1845 70.1859 main 531 517 O___P_________ jtwc_io IO031998 11.6000 70.8000 35 0 10.7690 69.5718 DD 3 58
1998152N11075 1998 30 NI AS NOT_NAMED 1998-06-05 03:00:00 NR 11.3212 70.3325 30 1004 newdelhi main 517 486 P___O_________ IO031998 11.6425 70.6650 37 0 11.0000 70.0000 DD 30 1004 2.00000 6 5 37
1998152N11075 1998 30 NI AS NOT_NAMED 1998-06-05 06:00:00 NR 11.6000 70.5000 30 1000 newdelhi main 486 483 O___O_________ jtwc_io IO031998 11.7000 70.5000 40 0 11.5000 70.5000 DD 30 1000 2.00000 6 9 348
1998152N11075 1998 30 NI AS NOT_NAMED 1998-06-05 09:00:00 NR 12.1500 70.1538 35 998 newdelhi main 503 503 P___O_________ IO031998 11.8000 70.3075 45 0 12.5000 70.0000 CS 35 998 2.50000 8 6 308
1998152N11075 1998 30 NI AS NOT_NAMED 1998-06-05 12:00:00 NR 11.9500 70.0500 35 998 newdelhi main 518 520 O___O_________ jtwc_io IO031998 11.9000 70.1000 50 0 12.0000 70.0000 CS 35 998 2.50000 8 4 231
1998152N11075 1998 30 NI AS NOT_NAMED 1998-06-05 15:00:00 NR 11.9068 69.8430 main 552 552 P___P_________ IO031998 11.9500 69.8850 50 0 11.8637 69.8011 CS 35 997 8 4 276
1998152N11075 1998 30 NI AS NOT_NAMED 1998-06-05 18:00:00 NR 12.0000 69.6000 35 996 newdelhi main 572 572 O___O_________ jtwc_io IO031998 12.0000 69.7000 50 0 12.0000 69.5000 CS 35 996 2.50000 8 5 301
1998152N11075 1998 30 NI AS NOT_NAMED 1998-06-05 21:00:00 NR 12.1760 69.3920 main 584 584 P___P_________ IO031998 12.0850 69.5850 52 0 12.2671 69.1991 CS 35 996 8 5 316
1998152N11075 1998 30 NI AS NOT_NAMED 1998-06-06 00:00:00 NR 12.3500 69.2500 35 996 newdelhi main 581 591 O___O_________ jtwc_io IO031998 12.2000 69.5000 55 0 12.5000 69.0000 CS 35 996 2.50000 8 3 322
1998152N11075 1998 30 NI AS NOT_NAMED 1998-06-06 03:00:00 NR 12.4100 69.2075 45 996 newdelhi main 591 585 P___O_________ IO031998 12.3200 69.4149 62 0 12.5000 69.0000 CS 45 996 3.00000 10 2 328
1998152N11075 1998 30 NI AS NOT_NAMED 1998-06-06 06:00:00 NR 12.5000 69.1500 55 989 newdelhi main 585 583 O___O_________ jtwc_io IO031998 12.5000 69.3000 70 1 12.5000 69.0000 SCS 55 989 3.50000 15 4 338
1998152N11075 1998 30 NI AS NOT_NAMED 1998-06-06 09:00:00 NR 12.7382 69.0745 main 583 578 P___P_________ IO031998 12.7775 69.1150 70 1 12.6988 69.0340 SCS 55 988 15 6 341
1998152N11075 1998 30 NI AS NOT_NAMED 1998-06-06 12:00:00 NR 13.0500 68.9500 55 987 newdelhi main 574 579 O___O_________ jtwc_io IO031998 13.1000 68.9000 70 1 13.0000 69.0000 SCS 55 987 3.50000 15 7 331
1998152N11075 1998 30 NI AS NOT_NAMED 1998-06-06 15:00:00 NR 13.3250 68.7400 main 595 592 P___P_________ IO031998 13.4000 68.6925 70 1 13.2500 68.7876 SCS 55 989 15 7 322
1998152N11075 1998 30 NI AS NOT_NAMED 1998-06-06 18:00:00 NR 13.6000 68.5000 55 991 newdelhi main 602 602 O___O_________ jtwc_io IO031998 13.7000 68.5000 70 1 13.5000 68.5000 SCS 55 991 3.50000 15 7 319
1998152N11075 1998 30 NI AS NOT_NAMED 1998-06-06 21:00:00 NR 13.8457 68.2707 main 614 610 P___P_________ IO031998 13.9925 68.3424 72 1 13.6989 68.1989 SCS 55 990 15 7 325
1998152N11075 1998 30 NI AS NOT_NAMED 1998-06-07 00:00:00 NR 14.1500 68.1000 55 989 newdelhi main 614 609 O___O_________ jtwc_io IO031998 14.3000 68.2000 75 1 14.0000 68.0000 SCS 55 989 3.50000 15 8 342
1998152N11075 1998 30 NI AS NOT_NAMED 1998-06-07 03:00:00 NR 14.5675 68.0212 55 989 newdelhi main 606 591 P___O_________ IO031998 14.6350 68.0425 75 1 14.5000 68.0000 SCS 55 989 3.50000 15 9 350
1998152N11075 1998 30 NI AS NOT_NAMED 1998-06-07 06:00:00 NR 15.0000 67.9500 55 989 newdelhi main 591 590 O___O_________ jtwc_io IO031998 15.0000 67.9000 75 1 15.0000 68.0000 SCS 55 989 3.50000 15 9 352
1998152N11075 1998 30 NI AS NOT_NAMED 1998-06-07 09:00:00 NR 15.4462 67.8888 65 979 newdelhi main 590 580 P___O_________ IO031998 15.3925 67.7775 77 1 15.5000 68.0000 SCS 65 979 4.00000 21 9 354
1998152N11075 1998 30 NI AS NOT_NAMED 1998-06-07 12:00:00 NR 15.9000 67.8500 80 970 newdelhi main 580 585 O___O_________ jtwc_io IO031998 15.8000 67.7000 80 1 16.0000 68.0000 VSCS 80 970 4.50000 30 8 358
1998152N11075 1998 30 NI AS NOT_NAMED 1998-06-07 15:00:00 NR 16.2260 67.8425 main 585 566 P___P_________ IO031998 16.1850 67.6849 85 2 16.2670 68.0000 VSCS 80 970 30 7 1
1998152N11075 1998 30 NI AS NOT_NAMED 1998-06-07 18:00:00 NR 16.5500 67.8500 80 970 newdelhi main 551 514 O___O_________ jtwc_io IO031998 16.6000 67.7000 90 2 16.5000 68.0000 VSCS 80 970 4.50000 30 8 4
1998152N11075 1998 30 NI AS NOT_NAMED 1998-06-07 21:00:00 NR 17.0254 67.9008 main 514 468 P___P_________ IO031998 17.0850 67.7000 92 2 16.9658 68.1017 VSCS 80 970 30 10 1
1998152N11075 1998 30 NI AS NOT_NAMED 1998-06-08 00:00:00 NR 17.5500 67.8500 80 970 newdelhi main 459 440 O___O_________ jtwc_io IO031998 17.6000 67.7000 95 2 17.5000 68.0000 VSCS 80 970 4.50000 30 11 344
1998152N11075 1998 30 NI AS NOT_NAMED 1998-06-08 03:00:00 NR 18.0500 67.5963 80 970 newdelhi main 432 384 P___O_________ IO031998 18.1000 67.6926 97 3 18.0000 67.5000 VSCS 80 970 4.50000 30 10 1
1998152N11075 1998 30 NI AS NOT_NAMED 1998-06-08 06:00:00 NR 18.5500 67.8500 90 970 newdelhi main 368 335 O___O_________ jtwc_io IO031998 18.6000 67.7000 100 3 18.5000 68.0000 VSCS 90 970 5.00000 40 10 16
1998152N11075 1998 30 NI AS NOT_NAMED 1998-06-08 09:00:00 NR 19.0536 67.8946 main 328 297 P___P_________ IO031998 19.1075 67.7202 97 3 18.9998 68.0691 VSCS 90 964 40 10 2
1998152N11075 1998 30 NI AS NOT_NAMED 1998-06-08 12:00:00 NR 19.5500 67.9000 90 958 newdelhi main 289 243 O___O_________ jtwc_io IO031998 19.6000 67.8000 95 2 19.5000 68.0000 VSCS 90 958 5.00000 40 10 10
1998152N11075 1998 30 NI AS NOT_NAMED 1998-06-08 15:00:00 NR 20.0250 68.0800 main 243 190 P___P_________ IO031998 20.0499 67.9478 95 2 20.0001 68.2123 VSCS 85 959 40 10 24
1998152N11075 1998 30 NI AS NOT_NAMED 1998-06-08 18:00:00 NR 20.5000 68.3500 80 960 newdelhi main 182 129 O___O_________ jtwc_io IO031998 20.5000 68.2000 95 2 20.5000 68.5000 VSCS 80 960 5.00000 40 11 28
1998152N11075 1998 30 NI AS NOT_NAMED 1998-06-08 21:00:00 NR 20.9849 68.6310 main 129 60 P___P_________ IO031998 20.9700 68.5627 100 3 20.9998 68.6993 VSCS 80 959 40 12 31
1998152N11075 1998 30 NI AS NOT_NAMED 1998-06-09 00:00:00 NR 21.5000 69.0000 80 958 newdelhi main 60 0 O___O_________ jtwc_io IO031998 21.5000 69.0000 105 3 21.5000 69.0000 VSCS 80 958 5.00000 40 13 36
1998152N11075 1998 30 NI AS NOT_NAMED 1998-06-09 03:00:00 NR 22.0674 69.4676 newdelhi main 0 0 P___O_________ IO031998 22.1349 69.4352 92 2 22.0000 69.5000 VSCS 0.00000 13 29
1998152N11075 1998 30 NI AS NOT_NAMED 1998-06-09 06:00:00 NR 22.6286 69.6714 newdelhi main 11 0 O___O_________ jtwc_io IO031998 22.8000 69.9000 80 1 22.5000 69.5000 VSCS 0.00000 12 27
1998152N11075 1998 30 NI AS NOT_NAMED 1998-06-09 09:00:00 NR 23.1395 70.0621 main 0 0 P___P_________ IO031998 23.4178 70.3917 70 1 23.0003 69.8973 VSCS 13 41
1998152N11075 1998 30 NI AS NOT_NAMED 1998-06-09 12:00:00 NR 23.6000 70.5800 newdelhi main 0 0 O___O_________ jtwc_io IO031998 24.0000 70.9000 60 0 23.5000 70.5000 SCS 0.00000 12 45
1998152N11075 1998 30 NI AS NOT_NAMED 1998-06-09 15:00:00 NR 23.9619 70.9640 main 0 0 ____P_________ IO031998 -1 23.9619 70.9640 SCS 12 43
1998152N11075 1998 30 NI AS NOT_NAMED 1998-06-09 18:00:00 NR 24.5000 71.5000 newdelhi main 0 0 ____O_________ -1 24.5000 71.5000 CS 0.00000 18 42
1998152N11075 1998 30 NI AS NOT_NAMED 1998-06-09 21:00:00 NR 25.2677 72.2655 main 0 0 ____P_________ -1 25.2677 72.2655 CS 20 42
1998152N11075 1998 30 NI AS NOT_NAMED 1998-06-10 00:00:00 NR 26.0000 73.0000 newdelhi main 0 0 ____O_________ -1 26.0000 73.0000 DD 0.00000 17 42
1998152N11075 1998 30 NI AS NOT_NAMED 1998-06-10 03:00:00 NR 26.5000 73.5000 newdelhi main 0 0 ____O_________ -1 26.5000 73.5000 DD 0.00000 13 42
1998152N11075 1998 30 NI AS NOT_NAMED 1998-06-10 06:00:00 NR 27.0000 74.0000 newdelhi main 0 0 ____O_________ -1 27.0000 74.0000 DD 0.00000 17 53
1998152N11075 1998 30 NI AS NOT_NAMED 1998-06-10 09:00:00 NR 27.5000 75.0000 newdelhi main 0 ____O_________ -1 27.5000 75.0000 D 0.00000 20 61

IBTrACS Databaseについて

本データベースは、米国NOAAが公開する1842年以降の世界の熱帯低気圧のベストトラックデータアーカイブInternational Best Track Archive for Climate Stewardship (IBTrACS)を、ウェブで閲覧しやすい形式に変換したものです。

最終更新日:2021-10-08